createdAt,value
2023-05-05T00:00:37.271Z,1005.56
2023-05-05T00:05:37.193Z,1005.53
2023-05-05T00:10:37.132Z,1005.58
2023-05-05T00:15:37.047Z,1005.53
2023-05-05T00:20:36.994Z,1005.45
2023-05-05T00:25:36.928Z,1005.38
2023-05-05T00:30:36.860Z,1005.36
2023-05-05T00:35:36.805Z,1005.38
2023-05-05T00:40:36.734Z,1005.24
2023-05-05T00:45:36.659Z,1005.19
2023-05-05T00:50:36.622Z,1005.09
2023-05-05T00:55:36.554Z,1005.10
2023-05-05T01:00:36.471Z,1005.00
2023-05-05T01:05:36.397Z,1005.01
2023-05-05T01:10:36.337Z,1005.00
2023-05-05T01:15:36.268Z,1005.07
2023-05-05T01:20:36.255Z,1005.19
2023-05-05T01:25:36.141Z,1005.11
2023-05-05T01:30:36.072Z,1005.09
2023-05-05T01:35:35.994Z,1005.16
2023-05-05T01:40:35.937Z,1005.21
2023-05-05T01:45:35.941Z,1005.17
2023-05-05T01:50:35.804Z,1005.16
2023-05-05T01:55:35.746Z,1005.09
2023-05-05T02:00:35.676Z,1005.08
2023-05-05T02:05:35.600Z,1005.13
2023-05-05T02:10:35.538Z,1005.07
2023-05-05T02:15:35.502Z,1004.92
2023-05-05T02:20:35.418Z,1004.89
2023-05-05T02:25:35.348Z,1004.80
2023-05-05T02:30:35.302Z,1004.84
2023-05-05T02:35:35.218Z,1004.83
2023-05-05T02:40:35.153Z,1004.85
2023-05-05T02:45:35.112Z,1004.69
2023-05-05T02:50:35.056Z,1004.81
2023-05-05T02:55:34.972Z,1004.94
2023-05-05T03:00:34.910Z,1004.96
2023-05-05T03:05:34.830Z,1004.96
2023-05-05T03:10:34.774Z,1004.93
2023-05-05T03:15:34.699Z,1004.98
2023-05-05T03:20:34.629Z,1004.94
2023-05-05T03:25:34.563Z,1004.87
2023-05-05T03:30:34.496Z,1004.84
2023-05-05T03:35:34.422Z,1004.82
2023-05-05T03:40:43.715Z,1004.81
2023-05-05T03:45:35.340Z,1004.81
2023-05-05T03:50:34.226Z,1004.85
2023-05-05T03:55:34.213Z,1004.75
2023-05-05T04:00:34.206Z,1005.01
2023-05-05T04:05:34.114Z,1004.94
2023-05-05T04:10:34.063Z,1004.94
2023-05-05T04:15:33.972Z,1004.87
2023-05-05T04:20:33.891Z,1004.92
2023-05-05T04:25:33.814Z,1005.00
2023-05-05T04:30:33.771Z,1004.92
2023-05-05T04:35:33.703Z,1004.98
2023-05-05T04:40:33.647Z,1005.00
2023-05-05T04:45:33.562Z,1005.09
2023-05-05T04:50:33.525Z,1005.20
2023-05-05T04:55:33.421Z,1005.15
2023-05-05T05:00:33.364Z,1005.22
2023-05-05T05:05:33.308Z,1005.04
2023-05-05T05:10:33.231Z,1005.02
2023-05-05T05:15:33.261Z,1005.06
2023-05-05T05:20:33.106Z,1005.13
2023-05-05T05:25:33.101Z,1005.15
2023-05-05T05:30:33.093Z,1005.13
2023-05-05T05:35:32.910Z,1005.21
2023-05-05T05:40:32.838Z,1005.33
2023-05-05T05:45:32.746Z,1005.09
2023-05-05T05:50:32.704Z,1005.10
2023-05-05T05:55:32.652Z,1004.99
2023-05-05T06:00:32.573Z,1005.05
2023-05-05T06:05:32.495Z,1005.13
2023-05-05T06:10:32.771Z,1005.16
2023-05-05T06:15:32.383Z,1005.32
2023-05-05T06:20:32.288Z,1005.43
2023-05-05T06:25:32.239Z,1005.39
2023-05-05T06:30:32.180Z,1005.08
2023-05-05T06:35:32.113Z,1005.01
2023-05-05T06:40:32.031Z,1004.97
2023-05-05T06:45:31.968Z,1005.18
2023-05-05T06:50:31.903Z,1005.11
2023-05-05T06:55:31.837Z,1005.16
2023-05-05T07:00:31.813Z,1005.13
2023-05-05T07:05:31.694Z,1005.13
2023-05-05T07:10:31.655Z,1005.04
2023-05-05T07:15:31.596Z,1005.06
2023-05-05T07:20:31.532Z,1005.03
2023-05-05T07:25:31.489Z,1004.93
2023-05-05T07:30:31.444Z,1004.86
2023-05-05T07:35:31.344Z,1004.89
2023-05-05T07:40:31.264Z,1004.88
2023-05-05T07:45:31.172Z,1004.86
2023-05-05T07:50:31.112Z,1004.86
2023-05-05T07:55:31.043Z,1004.86
2023-05-05T08:00:30.979Z,1004.84
2023-05-05T08:05:30.915Z,1004.86
2023-05-05T08:10:30.852Z,1004.70
2023-05-05T08:15:30.789Z,1004.69
2023-05-05T08:20:30.738Z,1004.66
2023-05-05T08:25:30.663Z,1004.66
2023-05-05T08:30:30.632Z,1004.64
2023-05-05T08:35:30.549Z,1004.57
2023-05-05T08:40:30.485Z,1004.49
2023-05-05T08:45:30.410Z,1004.44
2023-05-05T08:50:30.349Z,1004.41
2023-05-05T08:55:30.314Z,1004.22
2023-05-05T09:00:30.238Z,1004.23
2023-05-05T09:05:30.163Z,1004.22
2023-05-05T09:10:30.187Z,1004.10
2023-05-05T09:15:30.019Z,1004.09
2023-05-05T09:20:29.969Z,1004.08
2023-05-05T09:25:29.897Z,1004.13
2023-05-05T09:30:29.835Z,1004.16
2023-05-05T09:35:29.762Z,1004.08
2023-05-05T09:40:29.697Z,1004.08
2023-05-05T09:45:29.632Z,1004.13
2023-05-05T09:50:29.578Z,1004.17
2023-05-05T09:55:29.514Z,1004.15
2023-05-05T10:00:29.432Z,1004.05
2023-05-05T10:05:29.391Z,1003.96
2023-05-05T10:10:29.309Z,1003.92
2023-05-05T10:15:29.238Z,1003.89
2023-05-05T10:20:29.184Z,1003.87
2023-05-05T10:25:29.105Z,1003.70
2023-05-05T10:30:29.063Z,1003.72
2023-05-05T10:35:28.962Z,1003.77
2023-05-05T10:40:28.898Z,1003.64
2023-05-05T10:45:28.924Z,1003.63
2023-05-05T10:50:28.782Z,1003.67
2023-05-05T10:55:28.710Z,1003.61
2023-05-05T11:00:28.627Z,1003.66
2023-05-05T11:05:28.555Z,1003.60
2023-05-05T11:10:28.513Z,1003.55
2023-05-05T11:15:28.473Z,1003.60
2023-05-05T11:20:28.373Z,1003.45
2023-05-05T11:25:28.294Z,1003.38
2023-05-05T11:30:28.228Z,1003.29
2023-05-05T11:35:28.157Z,1003.25
2023-05-05T11:40:28.094Z,1003.30
2023-05-05T11:45:28.026Z,1003.12
2023-05-05T11:50:27.981Z,1003.09
2023-05-05T11:55:27.888Z,1003.07
2023-05-05T12:00:27.836Z,1003.09
2023-05-05T12:05:27.762Z,1003.13
2023-05-05T12:10:27.719Z,1003.03
2023-05-05T12:15:27.661Z,1002.96
2023-05-05T12:20:27.577Z,1003.06
2023-05-05T12:25:27.521Z,1002.99
2023-05-05T12:30:27.449Z,1002.99
2023-05-05T12:35:27.376Z,1002.98
2023-05-05T12:40:27.323Z,1003.02
2023-05-05T12:45:27.256Z,1003.00
2023-05-05T12:50:27.172Z,1002.86
2023-05-05T12:55:27.112Z,1002.76
2023-05-05T13:00:27.051Z,1002.79
2023-05-05T13:05:26.983Z,1002.65
2023-05-05T13:10:26.928Z,1002.78
2023-05-05T13:15:26.841Z,1002.61
2023-05-05T13:20:26.780Z,1002.60
2023-05-05T13:25:26.733Z,1002.61
2023-05-05T13:30:26.663Z,1002.51
2023-05-05T13:35:26.596Z,1002.49
2023-05-05T13:40:26.525Z,1002.42
2023-05-05T13:45:26.469Z,1002.36
2023-05-05T13:50:26.396Z,1002.20
2023-05-05T13:55:26.319Z,1002.28
2023-05-05T14:00:26.263Z,1002.29
2023-05-05T14:05:26.455Z,1002.19
2023-05-05T14:10:26.136Z,1002.17
2023-05-05T14:15:26.097Z,1002.04
2023-05-05T14:20:25.996Z,1002.01
2023-05-05T14:25:25.993Z,1002.01
2023-05-05T14:30:25.865Z,1001.96
2023-05-05T14:35:25.803Z,1001.98
2023-05-05T14:40:25.745Z,1001.95
2023-05-05T14:45:25.689Z,1001.98
2023-05-05T14:50:25.666Z,1001.93
2023-05-05T14:55:25.542Z,1001.83
2023-05-05T15:00:25.489Z,1001.77
2023-05-05T15:05:25.414Z,1001.79
2023-05-05T15:10:25.342Z,1001.66
2023-05-05T15:15:25.287Z,1001.68
2023-05-05T15:20:25.209Z,1001.66
2023-05-05T15:25:25.134Z,1001.66
2023-05-05T15:30:25.085Z,1001.56
2023-05-05T15:35:24.997Z,1001.53
2023-05-05T15:40:24.949Z,1001.51
2023-05-05T15:45:24.875Z,1001.46
2023-05-05T15:50:24.876Z,1001.50
2023-05-05T15:55:24.797Z,1001.51
2023-05-05T16:00:24.676Z,1001.40
2023-05-05T16:05:24.622Z,1001.35
2023-05-05T16:10:24.529Z,1001.39
2023-05-05T16:15:24.477Z,1001.47
2023-05-05T16:20:24.391Z,1001.39
2023-05-05T16:25:24.330Z,1001.35
2023-05-05T16:30:24.346Z,1001.36
2023-05-05T16:35:24.215Z,1001.43
2023-05-05T16:40:24.215Z,1001.37
2023-05-05T16:45:24.125Z,1001.23
2023-05-05T16:50:24.173Z,1001.26
2023-05-05T16:55:24.014Z,1001.30
2023-05-05T17:00:23.915Z,1001.38
2023-05-05T17:05:23.821Z,1001.29
2023-05-05T17:10:23.909Z,1001.30
2023-05-05T17:15:23.665Z,1001.34
2023-05-05T17:20:23.601Z,1001.32
2023-05-05T17:25:23.719Z,1001.23
2023-05-05T17:30:23.465Z,1001.21
2023-05-05T17:35:23.400Z,1001.24
2023-05-05T17:40:23.350Z,1001.24
2023-05-05T17:45:23.263Z,1001.19
2023-05-05T17:50:23.253Z,1001.18
2023-05-05T17:55:23.217Z,1001.09
2023-05-05T18:00:23.123Z,1001.20
2023-05-05T18:05:23.080Z,1001.19
2023-05-05T18:10:22.983Z,1001.18
2023-05-05T18:15:23.180Z,1001.16
2023-05-05T18:20:22.920Z,1001.23
2023-05-05T18:25:22.955Z,1001.25
2023-05-05T18:30:22.749Z,1001.33
2023-05-05T18:35:22.744Z,1001.42
2023-05-05T18:40:22.636Z,1001.39
2023-05-05T18:45:22.582Z,1001.35
2023-05-05T18:50:22.491Z,1001.43
2023-05-05T18:55:22.380Z,1001.45
2023-05-05T19:00:22.410Z,1001.48
2023-05-05T19:05:22.666Z,1001.51
2023-05-05T19:10:22.266Z,1001.62
2023-05-05T19:15:22.137Z,1001.50
2023-05-05T19:20:22.107Z,1001.58
2023-05-05T19:25:22.094Z,1001.53
2023-05-05T19:30:21.889Z,1001.56
2023-05-05T19:35:21.820Z,1001.63
2023-05-05T19:40:21.763Z,1001.64
2023-05-05T19:45:21.675Z,1001.70
2023-05-05T19:50:21.660Z,1001.68
2023-05-05T19:55:21.591Z,1001.60
2023-05-05T20:00:21.488Z,1001.73
2023-05-05T20:05:21.465Z,1001.54
2023-05-05T20:10:21.366Z,1001.64
2023-05-05T20:15:21.358Z,1001.60
2023-05-05T20:20:21.324Z,1001.55
2023-05-05T20:25:21.158Z,1001.42
2023-05-05T20:30:21.114Z,1001.50
2023-05-05T20:35:21.009Z,1001.32
2023-05-05T20:40:20.983Z,1001.42
2023-05-05T20:45:20.908Z,1001.45
2023-05-05T20:50:20.869Z,1001.34
2023-05-05T20:55:20.779Z,1001.33
2023-05-05T21:00:20.728Z,1001.42
2023-05-05T21:05:20.640Z,1001.38
2023-05-05T21:10:20.567Z,1001.43
2023-05-05T21:15:20.483Z,1001.43
2023-05-05T21:20:20.445Z,1001.37
2023-05-05T21:25:20.365Z,1001.22
2023-05-05T21:30:20.311Z,1001.23
2023-05-05T21:35:20.239Z,1001.07
2023-05-05T21:40:20.198Z,1001.15
2023-05-05T21:45:20.112Z,1001.13
2023-05-05T21:50:20.088Z,1001.05
2023-05-05T21:55:19.947Z,1001.05
2023-05-05T22:00:19.902Z,1001.00
2023-05-05T22:05:19.819Z,1000.94
2023-05-05T22:10:19.756Z,1000.91
2023-05-05T22:15:19.684Z,1001.08
2023-05-05T22:20:19.617Z,1001.22
2023-05-05T22:25:19.560Z,1001.25
2023-05-05T22:30:19.470Z,1001.21
2023-05-05T22:35:19.414Z,1001.23
2023-05-05T22:40:19.618Z,1001.30
2023-05-05T22:45:19.771Z,1001.43
2023-05-05T22:50:19.204Z,1001.50
2023-05-05T22:55:19.166Z,1001.68
2023-05-05T23:00:19.107Z,1001.74
2023-05-05T23:05:19.053Z,1001.89
2023-05-05T23:10:18.949Z,1001.93
2023-05-05T23:15:18.931Z,1001.90
2023-05-05T23:20:18.820Z,1001.86
2023-05-05T23:25:18.772Z,1001.89
2023-05-05T23:30:18.677Z,1001.87
2023-05-05T23:35:18.633Z,1001.85
2023-05-05T23:40:18.553Z,1001.78
2023-05-05T23:45:19.442Z,1001.79
2023-05-05T23:50:18.418Z,1001.73
2023-05-05T23:55:18.344Z,1001.81
